createdAt,value
2023-12-13T00:01:10.400Z,0.90
2023-12-13T00:03:38.296Z,0.80
2023-12-13T00:06:06.887Z,0.80
2023-12-13T00:08:36.550Z,0.70
2023-12-13T00:11:04.496Z,0.70
2023-12-13T00:13:32.424Z,0.73
2023-12-13T00:16:00.486Z,0.60
2023-12-13T00:18:28.436Z,0.67
2023-12-13T00:20:56.524Z,0.53
2023-12-13T00:23:24.726Z,0.50
2023-12-13T00:25:54.036Z,0.50
2023-12-13T00:28:22.567Z,0.43
2023-12-13T00:30:51.110Z,0.60
2023-12-13T00:33:19.152Z,0.40
2023-12-13T00:35:47.763Z,0.40
2023-12-13T00:38:15.600Z,0.40
2023-12-13T00:40:44.481Z,0.60
2023-12-13T00:43:13.752Z,0.33
2023-12-13T00:45:41.826Z,0.70
2023-12-13T00:48:10.225Z,0.50
2023-12-13T00:50:37.440Z,0.60
2023-12-13T00:53:05.295Z,0.50
2023-12-13T00:55:33.241Z,0.40
2023-12-13T00:58:01.229Z,0.40
2023-12-13T01:00:30.841Z,0.50
2023-12-13T01:02:58.761Z,0.40
2023-12-13T01:05:26.754Z,0.43
2023-12-13T01:07:54.796Z,0.50
2023-12-13T01:10:22.677Z,0.30
2023-12-13T01:12:50.554Z,0.30
2023-12-13T01:15:18.461Z,0.30
2023-12-13T01:17:47.776Z,0.40
2023-12-13T01:20:15.934Z,0.40
2023-12-13T01:22:44.016Z,0.40
2023-12-13T01:25:12.172Z,0.50
2023-12-13T01:27:40.162Z,0.70
2023-12-13T01:30:09.608Z,0.40
2023-12-13T01:32:37.618Z,0.40
2023-12-13T01:35:07.821Z,0.50
2023-12-13T01:37:35.976Z,0.40
2023-12-13T01:40:04.827Z,0.50
2023-12-13T01:42:32.795Z,0.40
2023-12-13T01:45:00.771Z,0.43
2023-12-13T01:47:28.822Z,0.40
2023-12-13T01:49:57.059Z,0.40
2023-12-13T01:52:26.577Z,0.50
2023-12-13T01:54:56.394Z,0.97
2023-12-13T01:57:24.869Z,1.30
2023-12-13T01:59:52.863Z,1.00
2023-12-13T02:02:20.854Z,0.80
2023-12-13T02:04:49.774Z,0.90
2023-12-13T02:07:17.750Z,0.90
2023-12-13T02:09:48.405Z,1.20
2023-12-13T02:12:16.347Z,1.10
2023-12-13T02:14:44.968Z,1.20
2023-12-13T02:17:14.333Z,1.20
2023-12-13T02:19:42.236Z,1.30
2023-12-13T02:22:11.499Z,1.20
2023-12-13T02:24:41.434Z,1.00
2023-12-13T02:27:09.518Z,1.03
2023-12-13T02:29:37.446Z,0.90
2023-12-13T02:32:06.351Z,1.00
2023-12-13T02:34:34.309Z,0.87
2023-12-13T02:37:03.489Z,1.00
2023-12-13T02:39:33.472Z,1.10
2023-12-13T02:42:02.390Z,1.00
2023-12-13T02:44:30.229Z,0.90
2023-12-13T02:47:00.081Z,0.60
2023-12-13T02:49:28.201Z,0.83
2023-12-13T02:51:56.220Z,0.80
2023-12-13T02:54:24.104Z,0.90
2023-12-13T02:56:53.313Z,0.73
2023-12-13T02:59:21.205Z,1.10
2023-12-13T03:01:49.098Z,0.80
2023-12-13T03:04:17.009Z,0.93
2023-12-13T03:06:44.915Z,0.93
2023-12-13T03:09:12.797Z,0.80
2023-12-13T03:11:40.944Z,0.70
2023-12-13T03:14:10.156Z,0.90
2023-12-13T03:16:38.054Z,0.70
2023-12-13T03:19:06.186Z,0.80
2023-12-13T03:21:34.086Z,1.00
2023-12-13T03:24:01.937Z,1.10
2023-12-13T03:26:30.137Z,0.90
2023-12-13T03:28:57.984Z,0.70
2023-12-13T03:31:27.237Z,1.63
2023-12-13T03:33:56.272Z,1.60
2023-12-13T03:36:24.356Z,1.50
2023-12-13T03:38:52.304Z,1.23
2023-12-13T03:41:20.397Z,1.20
2023-12-13T03:43:48.269Z,1.10
2023-12-13T03:46:16.221Z,1.03
2023-12-13T03:48:45.529Z,0.73
2023-12-13T03:51:13.487Z,0.80
2023-12-13T03:53:43.522Z,1.00
2023-12-13T03:56:12.175Z,1.20
2023-12-13T03:58:40.423Z,0.90
2023-12-13T04:01:09.983Z,0.90
2023-12-13T04:03:38.315Z,0.60
2023-12-13T04:06:08.442Z,0.63
2023-12-13T04:08:36.337Z,0.60
2023-12-13T04:11:04.239Z,0.60
2023-12-13T04:13:32.189Z,0.43
2023-12-13T04:16:00.120Z,0.70
2023-12-13T04:18:28.252Z,0.50
2023-12-13T04:20:56.182Z,0.40
2023-12-13T04:23:25.441Z,0.80
2023-12-13T04:25:53.448Z,0.50
2023-12-13T04:28:21.438Z,0.57
2023-12-13T04:30:49.405Z,0.60
2023-12-13T04:33:19.539Z,0.80
2023-12-13T04:35:47.795Z,0.50
2023-12-13T04:38:15.649Z,0.70
2023-12-13T04:40:46.080Z,0.50
2023-12-13T04:43:14.048Z,0.70
2023-12-13T04:45:41.979Z,0.43
2023-12-13T04:48:09.960Z,0.70
2023-12-13T04:50:37.986Z,0.77
2023-12-13T04:53:05.837Z,0.70
2023-12-13T04:55:34.453Z,0.77
2023-12-13T04:58:03.746Z,0.50
2023-12-13T05:00:31.679Z,0.70
2023-12-13T05:02:59.612Z,0.63
2023-12-13T05:05:27.557Z,0.90
2023-12-13T05:07:55.612Z,0.70
2023-12-13T05:10:23.614Z,0.80
2023-12-13T05:12:51.472Z,0.87
2023-12-13T05:15:20.785Z,0.70
2023-12-13T05:17:48.770Z,0.83
2023-12-13T05:20:16.873Z,0.80
2023-12-13T05:22:44.931Z,0.90
2023-12-13T05:25:12.897Z,0.60
2023-12-13T05:27:40.802Z,1.10
2023-12-13T05:30:09.460Z,0.70
2023-12-13T05:32:38.706Z,0.80
2023-12-13T05:35:07.041Z,0.83
2023-12-13T05:37:35.049Z,1.00
2023-12-13T05:40:04.563Z,1.00
2023-12-13T05:42:34.447Z,1.07
2023-12-13T05:45:02.322Z,1.17
2023-12-13T05:47:30.712Z,1.00
2023-12-13T05:50:00.076Z,0.87
2023-12-13T05:52:28.790Z,0.83
2023-12-13T05:54:56.672Z,1.37
2023-12-13T05:57:24.695Z,1.00
2023-12-13T05:59:52.565Z,0.90
2023-12-13T06:02:20.458Z,0.80
2023-12-13T06:04:49.044Z,0.80
2023-12-13T06:07:18.582Z,0.90
2023-12-13T06:09:47.249Z,1.07
2023-12-13T06:12:17.282Z,1.03
2023-12-13T06:14:45.497Z,0.97
2023-12-13T06:17:13.420Z,1.03
2023-12-13T06:19:41.793Z,1.20
2023-12-13T06:22:11.160Z,0.93
2023-12-13T06:24:40.366Z,1.00
2023-12-13T06:27:08.309Z,0.90
2023-12-13T06:29:36.203Z,0.73
2023-12-13T06:32:04.295Z,0.90
2023-12-13T06:34:32.502Z,0.83
2023-12-13T06:37:00.343Z,0.73
2023-12-13T06:39:28.272Z,1.00
2023-12-13T06:41:58.025Z,1.10
2023-12-13T06:44:27.685Z,0.97
2023-12-13T06:46:55.633Z,0.90
2023-12-13T06:49:24.975Z,0.90
2023-12-13T06:51:52.928Z,0.90
2023-12-13T06:54:20.915Z,1.20
2023-12-13T06:56:49.198Z,0.90
2023-12-13T06:59:18.426Z,1.03
2023-12-13T07:01:46.339Z,1.37
2023-12-13T07:04:14.472Z,1.40
2023-12-13T07:06:43.123Z,0.80
2023-12-13T07:09:11.969Z,0.80
2023-12-13T07:11:39.947Z,0.90
2023-12-13T07:14:08.827Z,0.87
2023-12-13T07:16:38.140Z,1.03
2023-12-13T07:19:06.007Z,0.87
2023-12-13T07:21:33.881Z,1.07
2023-12-13T07:24:01.804Z,1.17
2023-12-13T07:26:29.835Z,1.00
2023-12-13T07:28:57.795Z,1.10
2023-12-13T07:31:25.805Z,1.40
2023-12-13T07:33:56.616Z,1.00
2023-12-13T07:36:26.285Z,1.40
2023-12-13T07:38:54.139Z,1.30
2023-12-13T07:41:22.183Z,1.60
2023-12-13T07:43:50.229Z,1.93
2023-12-13T07:46:18.231Z,1.33
2023-12-13T07:48:46.269Z,2.53
2023-12-13T07:51:15.884Z,2.90
2023-12-13T07:53:45.375Z,3.60
2023-12-13T07:56:21.471Z,3.30
2023-12-13T07:58:57.216Z,3.20
2023-12-13T08:01:26.463Z,2.77
2023-12-13T08:03:54.379Z,1.90
2023-12-13T08:06:23.586Z,2.23
2023-12-13T08:08:52.720Z,2.77
2023-12-13T08:11:20.615Z,2.10
2023-12-13T08:13:48.689Z,1.50
2023-12-13T08:16:16.875Z,2.00
2023-12-13T08:18:45.268Z,2.13
2023-12-13T08:21:13.263Z,1.70
2023-12-13T08:23:42.485Z,1.90
2023-12-13T08:26:13.758Z,1.83
2023-12-13T08:28:41.733Z,1.70
2023-12-13T08:31:17.539Z,1.70
2023-12-13T08:33:51.983Z,1.40
2023-12-13T08:36:20.246Z,1.57
2023-12-13T08:38:49.552Z,1.90
2023-12-13T08:41:17.748Z,2.27
2023-12-13T08:43:45.743Z,3.23
2023-12-13T08:46:14.001Z,3.73
2023-12-13T08:48:42.265Z,3.80
2023-12-13T08:51:11.301Z,4.10
2023-12-13T08:53:39.221Z,4.33
2023-12-13T08:56:10.701Z,4.00
2023-12-13T08:58:38.871Z,4.60
2023-12-13T09:01:07.558Z,3.80
2023-12-13T09:03:35.531Z,3.10
2023-12-13T09:06:03.740Z,3.03
2023-12-13T09:08:31.631Z,3.80
2023-12-13T09:10:59.518Z,4.47
2023-12-13T09:13:28.881Z,5.17
2023-12-13T09:15:56.845Z,4.47
2023-12-13T09:18:24.827Z,3.80
2023-12-13T09:20:52.990Z,3.20
2023-12-13T09:23:24.690Z,3.33
2023-12-13T09:25:53.151Z,2.23
2023-12-13T09:28:21.482Z,2.47
2023-12-13T09:30:50.816Z,2.30
2023-12-13T09:33:19.722Z,2.50
2023-12-13T09:35:47.665Z,2.40
2023-12-13T09:38:15.567Z,2.40
2023-12-13T09:40:45.279Z,2.70
2023-12-13T09:43:14.314Z,2.20
2023-12-13T09:45:42.902Z,2.23
2023-12-13T09:48:14.393Z,2.80
2023-12-13T09:50:45.773Z,2.43
2023-12-13T09:53:15.949Z,2.40
2023-12-13T09:55:45.568Z,2.60
2023-12-13T09:58:13.608Z,3.30
2023-12-13T10:00:42.664Z,3.33
2023-12-13T10:03:12.158Z,4.00
2023-12-13T10:05:42.237Z,4.20
2023-12-13T10:08:12.668Z,4.27
2023-12-13T10:10:42.082Z,4.60
2023-12-13T10:13:11.152Z,3.70
2023-12-13T10:15:39.829Z,2.33
2023-12-13T10:18:07.733Z,2.07
2023-12-13T10:20:37.909Z,1.77
2023-12-13T10:23:06.499Z,1.70
2023-12-13T10:25:37.987Z,1.60
2023-12-13T10:28:06.356Z,0.97
2023-12-13T10:30:34.668Z,0.93
2023-12-13T10:33:02.592Z,1.00
2023-12-13T10:35:30.451Z,0.73
2023-12-13T10:38:04.042Z,0.80
2023-12-13T10:40:32.129Z,0.60
2023-12-13T10:43:00.886Z,1.00
2023-12-13T10:45:28.773Z,0.87
2023-12-13T10:48:02.533Z,0.60
2023-12-13T10:50:31.749Z,1.00
2023-12-13T10:53:03.297Z,0.70
2023-12-13T10:55:32.106Z,0.50
2023-12-13T10:58:00.541Z,0.40
2023-12-13T11:00:29.268Z,0.50
2023-12-13T11:03:03.188Z,0.60
2023-12-13T11:05:31.659Z,0.20
2023-12-13T11:08:00.946Z,0.40
2023-12-13T11:10:29.779Z,0.80
2023-12-13T11:13:00.048Z,0.60
2023-12-13T11:15:29.009Z,0.50
2023-12-13T11:18:01.125Z,0.50
2023-12-13T11:20:29.364Z,0.50
2023-12-13T11:22:58.211Z,0.47
2023-12-13T11:25:39.025Z,0.50
2023-12-13T11:28:07.130Z,0.47
2023-12-13T11:30:37.619Z,0.50
2023-12-13T11:33:13.592Z,0.50
2023-12-13T11:35:41.640Z,0.43
2023-12-13T11:38:10.062Z,0.60
2023-12-13T11:40:41.469Z,1.73
2023-12-13T11:43:11.337Z,0.50
2023-12-13T11:45:49.267Z,0.50
2023-12-13T11:48:18.794Z,0.47
2023-12-13T11:50:46.707Z,0.40
2023-12-13T11:53:14.595Z,0.43
2023-12-13T11:55:43.972Z,0.60
2023-12-13T11:58:11.902Z,0.40
2023-12-13T12:00:43.734Z,0.43
2023-12-13T12:03:11.772Z,0.50
2023-12-13T12:05:39.676Z,0.40
2023-12-13T12:08:09.221Z,0.70
2023-12-13T12:10:37.373Z,0.50
2023-12-13T12:13:07.000Z,0.60
2023-12-13T12:15:34.934Z,0.60
2023-12-13T12:18:04.029Z,0.50
2023-12-13T12:20:31.981Z,0.30
2023-12-13T12:23:02.551Z,0.47
2023-12-13T12:25:31.184Z,0.30
2023-12-13T12:27:59.607Z,0.40
2023-12-13T12:30:29.053Z,0.80
2023-12-13T12:32:57.202Z,0.60
2023-12-13T12:35:25.118Z,0.70
2023-12-13T12:37:53.172Z,1.60
2023-12-13T12:40:21.219Z,0.97
2023-12-13T12:42:49.351Z,0.50
2023-12-13T12:45:17.500Z,0.47
2023-12-13T12:47:46.915Z,0.57
2023-12-13T12:50:15.752Z,0.47
2023-12-13T12:52:44.317Z,0.50
2023-12-13T12:55:12.373Z,0.40
2023-12-13T12:57:40.216Z,0.40
2023-12-13T13:00:09.130Z,0.30
2023-12-13T13:02:37.132Z,0.30
2023-12-13T13:05:07.336Z,0.30
2023-12-13T13:07:38.009Z,0.50
2023-12-13T13:10:07.882Z,0.30
2023-12-13T13:12:35.838Z,0.40
2023-12-13T13:15:05.184Z,0.27
2023-12-13T13:17:33.377Z,1.30
2023-12-13T13:20:11.123Z,1.80
2023-12-13T13:22:40.656Z,1.30
2023-12-13T13:25:09.926Z,0.93
2023-12-13T13:27:38.435Z,0.60
2023-12-13T13:30:08.885Z,0.57
2023-12-13T13:32:36.932Z,0.70
2023-12-13T13:35:05.784Z,1.00
2023-12-13T13:37:34.245Z,0.67
2023-12-13T13:40:03.826Z,0.50
2023-12-13T13:42:32.027Z,0.53
2023-12-13T13:44:59.958Z,0.30
2023-12-13T13:47:28.125Z,0.53
2023-12-13T13:49:56.121Z,0.60
2023-12-13T13:52:24.187Z,0.50
2023-12-13T13:54:52.183Z,0.87
2023-12-13T13:57:21.743Z,1.10
2023-12-13T13:59:50.670Z,0.80
2023-12-13T14:02:30.881Z,0.63
2023-12-13T14:04:58.843Z,0.50
2023-12-13T14:07:26.884Z,0.60
2023-12-13T14:09:54.758Z,0.70
2023-12-13T14:12:24.153Z,1.00
2023-12-13T14:14:52.066Z,0.73
2023-12-13T14:17:19.899Z,0.60
2023-12-13T14:19:47.879Z,0.80
2023-12-13T14:22:16.447Z,0.60
2023-12-13T14:24:44.612Z,0.60
2023-12-13T14:27:12.865Z,0.67
2023-12-13T14:29:42.407Z,1.30
2023-12-13T14:32:10.881Z,0.93
2023-12-13T14:34:38.989Z,0.93
2023-12-13T14:37:06.874Z,0.90
2023-12-13T14:39:35.116Z,1.07
2023-12-13T14:42:03.251Z,1.03
2023-12-13T14:44:31.269Z,0.87
2023-12-13T14:47:00.576Z,0.83
2023-12-13T14:49:28.626Z,0.90
2023-12-13T14:51:56.741Z,1.50
2023-12-13T14:54:25.775Z,1.83
2023-12-13T14:56:53.635Z,1.90
2023-12-13T14:59:21.867Z,1.27
2023-12-13T15:01:49.959Z,1.10
2023-12-13T15:04:19.254Z,1.80
2023-12-13T15:06:47.104Z,4.33
2023-12-13T15:09:14.940Z,6.90
2023-12-13T15:11:42.844Z,3.97
2023-12-13T15:14:10.760Z,2.60
2023-12-13T15:16:38.865Z,1.90
2023-12-13T15:19:07.965Z,1.20
2023-12-13T15:21:37.265Z,1.20
2023-12-13T15:24:05.713Z,1.40
2023-12-13T15:26:33.701Z,1.17
2023-12-13T15:29:02.569Z,1.10
2023-12-13T15:31:30.530Z,1.80
2023-12-13T15:33:58.581Z,1.90
2023-12-13T15:36:26.722Z,1.53
2023-12-13T15:38:55.995Z,1.50
2023-12-13T15:41:23.882Z,1.70
2023-12-13T15:43:51.819Z,1.27
2023-12-13T15:46:21.122Z,1.40
2023-12-13T15:48:49.076Z,1.17
2023-12-13T15:51:16.948Z,1.40
2023-12-13T15:53:44.796Z,2.20
2023-12-13T15:56:14.035Z,4.40
2023-12-13T15:58:42.438Z,5.00
2023-12-13T16:01:11.322Z,5.53
2023-12-13T16:03:39.351Z,6.37
2023-12-13T16:06:07.763Z,5.80
2023-12-13T16:08:35.934Z,4.60
2023-12-13T16:11:08.805Z,4.37
2023-12-13T16:13:39.498Z,4.57
2023-12-13T16:16:08.265Z,4.97
2023-12-13T16:18:36.196Z,4.40
2023-12-13T16:21:04.397Z,3.77
2023-12-13T16:23:32.603Z,3.40
2023-12-13T16:26:00.692Z,3.03
2023-12-13T16:28:28.706Z,2.93
2023-12-13T16:31:00.660Z,3.43
2023-12-13T16:33:29.069Z,4.47
2023-12-13T16:35:56.966Z,4.07
2023-12-13T16:38:25.105Z,4.67
2023-12-13T16:40:52.994Z,4.70
2023-12-13T16:43:21.354Z,5.63
2023-12-13T16:45:49.234Z,5.77
2023-12-13T16:48:19.221Z,6.57
2023-12-13T16:50:47.157Z,6.73
2023-12-13T16:53:15.045Z,6.30
2023-12-13T16:55:43.651Z,5.40
2023-12-13T16:58:11.559Z,4.73
2023-12-13T17:00:39.575Z,4.33
2023-12-13T17:03:09.246Z,4.43
2023-12-13T17:05:38.586Z,5.40
2023-12-13T17:08:06.806Z,6.00
2023-12-13T17:10:34.811Z,7.63
2023-12-13T17:13:03.552Z,8.83
2023-12-13T17:15:31.892Z,8.57
2023-12-13T17:17:59.982Z,6.80
2023-12-13T17:20:28.061Z,5.37
2023-12-13T17:22:57.330Z,5.03
2023-12-13T17:25:25.418Z,4.90
2023-12-13T17:27:53.357Z,5.07
2023-12-13T17:30:21.303Z,4.13
2023-12-13T17:32:49.256Z,3.90
2023-12-13T17:35:21.564Z,5.60
2023-12-13T17:37:49.605Z,5.73
2023-12-13T17:40:19.591Z,6.00
2023-12-13T17:42:47.462Z,5.57
2023-12-13T17:45:15.377Z,4.10
2023-12-13T17:47:43.285Z,4.00
2023-12-13T17:50:11.815Z,3.47
2023-12-13T17:52:39.861Z,3.37
2023-12-13T17:55:08.394Z,4.13
2023-12-13T17:57:37.667Z,7.47
2023-12-13T18:00:06.794Z,9.23
2023-12-13T18:02:34.858Z,8.27
2023-12-13T18:05:03.740Z,7.00
2023-12-13T18:07:32.959Z,4.97
2023-12-13T18:10:02.327Z,4.87
2023-12-13T18:12:30.773Z,5.10
2023-12-13T18:15:02.972Z,5.97
2023-12-13T18:17:32.294Z,5.80
2023-12-13T18:20:01.489Z,4.77
2023-12-13T18:22:29.503Z,4.90
2023-12-13T18:24:57.581Z,4.20
2023-12-13T18:27:25.483Z,4.23
2023-12-13T18:29:53.332Z,4.10
2023-12-13T18:32:22.934Z,4.00
2023-12-13T18:34:50.936Z,3.57
2023-12-13T18:37:18.849Z,4.20
2023-12-13T18:39:46.794Z,4.30
2023-12-13T18:42:14.762Z,4.70
2023-12-13T18:44:42.584Z,5.00
2023-12-13T18:47:10.511Z,4.10
2023-12-13T18:49:40.745Z,4.30
2023-12-13T18:52:09.006Z,4.37
2023-12-13T18:54:36.956Z,5.20
2023-12-13T18:57:05.946Z,5.97
2023-12-13T18:59:34.137Z,6.50
2023-12-13T19:02:02.293Z,7.40
2023-12-13T19:04:30.954Z,8.60
2023-12-13T19:07:00.519Z,9.57
2023-12-13T19:09:28.909Z,9.67
2023-12-13T19:11:56.868Z,9.90
2023-12-13T19:14:24.739Z,10.07
2023-12-13T19:16:52.653Z,9.00
2023-12-13T19:19:23.209Z,8.20
2023-12-13T19:21:51.906Z,7.30
2023-12-13T19:24:21.345Z,8.33
2023-12-13T19:26:49.214Z,7.13
2023-12-13T19:29:17.596Z,7.77
2023-12-13T19:31:46.363Z,8.43
2023-12-13T19:34:23.088Z,7.80
2023-12-13T19:36:59.217Z,7.80
2023-12-13T19:39:28.446Z,7.33
2023-12-13T19:41:56.342Z,7.07
2023-12-13T19:44:24.268Z,8.27
2023-12-13T19:46:52.354Z,9.27
2023-12-13T19:49:20.469Z,9.90
2023-12-13T19:51:48.693Z,9.93
2023-12-13T19:54:17.117Z,8.90
2023-12-13T19:56:46.345Z,8.87
2023-12-13T19:59:14.301Z,8.63
2023-12-13T20:01:42.274Z,8.23
2023-12-13T20:04:10.216Z,8.47
2023-12-13T20:06:38.250Z,8.03
2023-12-13T20:09:06.083Z,7.83
2023-12-13T20:11:34.029Z,6.90
2023-12-13T20:14:05.532Z,7.63
2023-12-13T20:16:33.826Z,8.23
2023-12-13T20:19:01.841Z,7.00
2023-12-13T20:21:31.680Z,6.30
2023-12-13T20:24:00.233Z,5.93
2023-12-13T20:26:28.250Z,5.40
2023-12-13T20:28:56.284Z,4.97
2023-12-13T20:31:25.511Z,5.23
2023-12-13T20:33:53.543Z,5.47
2023-12-13T20:36:21.548Z,5.47
2023-12-13T20:38:49.642Z,4.73
2023-12-13T20:41:17.706Z,4.60
2023-12-13T20:43:45.574Z,5.00
2023-12-13T20:46:13.472Z,5.13
2023-12-13T20:48:42.693Z,5.87
2023-12-13T20:51:10.635Z,5.70
2023-12-13T20:53:38.853Z,6.70
2023-12-13T20:56:07.267Z,6.90
2023-12-13T20:58:35.162Z,6.73
2023-12-13T21:01:03.007Z,6.83
2023-12-13T21:03:31.226Z,6.67
2023-12-13T21:06:00.487Z,5.73
2023-12-13T21:08:28.369Z,5.70
2023-12-13T21:10:56.327Z,5.20
2023-12-13T21:13:25.129Z,6.70
2023-12-13T21:15:53.230Z,6.43
2023-12-13T21:18:21.197Z,6.27
2023-12-13T21:20:49.060Z,5.50
2023-12-13T21:23:18.450Z,5.23
2023-12-13T21:25:46.373Z,5.33
2023-12-13T21:28:14.328Z,4.87
2023-12-13T21:30:42.299Z,5.23
2023-12-13T21:33:10.195Z,4.93
2023-12-13T21:35:40.704Z,5.03
2023-12-13T21:38:11.560Z,4.67
2023-12-13T21:40:41.109Z,4.40
2023-12-13T21:43:09.043Z,4.83
2023-12-13T21:45:37.755Z,5.80
2023-12-13T21:48:07.074Z,6.10
2023-12-13T21:50:36.709Z,5.63
2023-12-13T21:53:04.819Z,5.93
2023-12-13T21:55:33.245Z,5.47
2023-12-13T21:58:02.659Z,5.80
2023-12-13T22:00:30.725Z,5.33
2023-12-13T22:02:58.694Z,5.80
2023-12-13T22:05:26.665Z,5.93
2023-12-13T22:07:54.526Z,5.70
2023-12-13T22:10:26.548Z,6.17
2023-12-13T22:12:54.545Z,5.43
2023-12-13T22:15:23.729Z,5.97
2023-12-13T22:17:55.068Z,6.43
2023-12-13T22:20:24.272Z,6.90
2023-12-13T22:22:53.791Z,6.90
2023-12-13T22:25:21.866Z,7.23
2023-12-13T22:27:49.732Z,7.17
2023-12-13T22:30:17.838Z,6.37
2023-12-13T22:32:47.188Z,5.43
2023-12-13T22:35:15.431Z,6.30
2023-12-13T22:37:43.396Z,7.10
2023-12-13T22:40:11.899Z,8.20
2023-12-13T22:42:39.785Z,6.97
2023-12-13T22:45:08.317Z,6.73
2023-12-13T22:47:36.288Z,6.27
2023-12-13T22:50:06.544Z,6.13
2023-12-13T22:52:34.496Z,5.90
2023-12-13T22:55:02.461Z,5.60
2023-12-13T22:57:30.321Z,4.87
2023-12-13T22:59:58.297Z,5.23
2023-12-13T23:02:27.640Z,4.70
2023-12-13T23:04:55.539Z,4.90
2023-12-13T23:07:28.389Z,4.73
2023-12-13T23:09:56.256Z,4.80
2023-12-13T23:12:24.136Z,5.17
2023-12-13T23:14:52.146Z,6.07
2023-12-13T23:17:20.032Z,6.03
2023-12-13T23:19:48.001Z,5.73
2023-12-13T23:22:15.884Z,6.07
2023-12-13T23:24:45.220Z,6.17
2023-12-13T23:27:13.171Z,5.77
2023-12-13T23:29:41.015Z,5.93
2023-12-13T23:32:08.997Z,7.37
2023-12-13T23:34:37.744Z,7.63
2023-12-13T23:37:06.522Z,7.77
2023-12-13T23:39:36.046Z,7.47
2023-12-13T23:42:06.011Z,6.40
2023-12-13T23:44:33.922Z,6.47
2023-12-13T23:47:02.471Z,6.43
2023-12-13T23:49:30.427Z,5.90
2023-12-13T23:51:58.821Z,6.83
2023-12-13T23:54:26.674Z,6.13
2023-12-13T23:56:54.530Z,5.63
2023-12-13T23:59:22.765Z,6.27
